sensor_id;sensor_type;location;lat;lon;timestamp;P1;durP1;ratioP1;P2;durP2;ratioP2
69083;SDS011;56185;48.526;9.044;2023-05-16T00:01:46;6.43;;;4.20;;
69083;SDS011;56185;48.526;9.044;2023-05-16T00:04:12;6.60;;;4.88;;
69083;SDS011;56185;48.526;9.044;2023-05-16T00:06:37;5.50;;;4.50;;
69083;SDS011;56185;48.526;9.044;2023-05-16T00:09:02;4.90;;;4.00;;
69083;SDS011;56185;48.526;9.044;2023-05-16T00:11:27;6.25;;;4.43;;
69083;SDS011;56185;48.526;9.044;2023-05-16T00:13:53;8.33;;;4.33;;
69083;SDS011;56185;48.526;9.044;2023-05-16T00:16:18;11.37;;;4.20;;
69083;SDS011;56185;48.526;9.044;2023-05-16T00:18:43;6.72;;;4.28;;
69083;SDS011;56185;48.526;9.044;2023-05-16T00:21:08;6.03;;;4.17;;
69083;SDS011;56185;48.526;9.044;2023-05-16T00:23:34;8.00;;;4.47;;
69083;SDS011;56185;48.526;9.044;2023-05-16T00:25:59;6.43;;;4.17;;
69083;SDS011;56185;48.526;9.044;2023-05-16T00:28:24;5.28;;;4.47;;
69083;SDS011;56185;48.526;9.044;2023-05-16T00:30:50;4.97;;;4.47;;
69083;SDS011;56185;48.526;9.044;2023-05-16T00:33:15;6.35;;;4.50;;
69083;SDS011;56185;48.526;9.044;2023-05-16T00:35:40;6.43;;;4.60;;
69083;SDS011;56185;48.526;9.044;2023-05-16T00:38:05;5.77;;;4.50;;
69083;SDS011;56185;48.526;9.044;2023-05-16T00:40:31;5.45;;;4.88;;
69083;SDS011;56185;48.526;9.044;2023-05-16T00:42:56;5.50;;;4.50;;
69083;SDS011;56185;48.526;9.044;2023-05-16T00:45:25;8.45;;;5.00;;
69083;SDS011;56185;48.526;9.044;2023-05-16T00:47:50;8.73;;;4.85;;
69083;SDS011;56185;48.526;9.044;2023-05-16T00:50:15;7.35;;;4.68;;
69083;SDS011;56185;48.526;9.044;2023-05-16T00:52:41;6.68;;;4.45;;
69083;SDS011;56185;48.526;9.044;2023-05-16T00:55:07;5.35;;;4.63;;
69083;SDS011;56185;48.526;9.044;2023-05-16T00:57:33;5.57;;;4.10;;
69083;SDS011;56185;48.526;9.044;2023-05-16T00:59:58;4.75;;;4.15;;
69083;SDS011;56185;48.526;9.044;2023-05-16T01:02:23;5.72;;;4.25;;
69083;SDS011;56185;48.526;9.044;2023-05-16T01:04:49;8.10;;;4.60;;
69083;SDS011;56185;48.526;9.044;2023-05-16T01:07:14;5.80;;;4.57;;
69083;SDS011;56185;48.526;9.044;2023-05-16T01:09:40;6.17;;;5.30;;
69083;SDS011;56185;48.526;9.044;2023-05-16T01:12:18;5.57;;;4.93;;
69083;SDS011;56185;48.526;9.044;2023-05-16T01:22:52;7.40;;;5.45;;
69083;SDS011;56185;48.526;9.044;2023-05-16T01:25:54;8.48;;;5.57;;
69083;SDS011;56185;48.526;9.044;2023-05-16T01:28:39;9.48;;;6.13;;
69083;SDS011;56185;48.526;9.044;2023-05-16T01:31:06;8.23;;;6.38;;
69083;SDS011;56185;48.526;9.044;2023-05-16T01:33:31;6.53;;;5.83;;
69083;SDS011;56185;48.526;9.044;2023-05-16T01:36:02;7.67;;;6.27;;
69083;SDS011;56185;48.526;9.044;2023-05-16T01:38:40;9.20;;;6.03;;
69083;SDS011;56185;48.526;9.044;2023-05-16T01:44:12;6.40;;;5.40;;
69083;SDS011;56185;48.526;9.044;2023-05-16T01:46:44;6.55;;;5.63;;
69083;SDS011;56185;48.526;9.044;2023-05-16T01:52:15;7.25;;;5.20;;
69083;SDS011;56185;48.526;9.044;2023-05-16T01:54:52;6.35;;;5.75;;
69083;SDS011;56185;48.526;9.044;2023-05-16T01:57:20;7.93;;;5.38;;
69083;SDS011;56185;48.526;9.044;2023-05-16T01:59:49;6.28;;;5.32;;
69083;SDS011;56185;48.526;9.044;2023-05-16T02:02:18;5.95;;;5.25;;
69083;SDS011;56185;48.526;9.044;2023-05-16T02:04:44;7.07;;;5.00;;
69083;SDS011;56185;48.526;9.044;2023-05-16T02:07:09;6.13;;;5.00;;
69083;SDS011;56185;48.526;9.044;2023-05-16T02:09:35;7.20;;;5.13;;
69083;SDS011;56185;48.526;9.044;2023-05-16T02:12:00;7.70;;;4.60;;
69083;SDS011;56185;48.526;9.044;2023-05-16T02:14:25;6.45;;;4.68;;
69083;SDS011;56185;48.526;9.044;2023-05-16T02:16:50;5.97;;;4.50;;
69083;SDS011;56185;48.526;9.044;2023-05-16T02:19:16;5.83;;;4.37;;
69083;SDS011;56185;48.526;9.044;2023-05-16T02:21:41;5.07;;;4.30;;
69083;SDS011;56185;48.526;9.044;2023-05-16T02:24:06;6.18;;;4.43;;
69083;SDS011;56185;48.526;9.044;2023-05-16T02:26:31;7.82;;;4.75;;
69083;SDS011;56185;48.526;9.044;2023-05-16T02:28:57;8.83;;;4.97;;
69083;SDS011;56185;48.526;9.044;2023-05-16T02:31:29;5.40;;;4.53;;
69083;SDS011;56185;48.526;9.044;2023-05-16T02:33:55;6.43;;;4.45;;
69083;SDS011;56185;48.526;9.044;2023-05-16T02:36:21;6.22;;;4.65;;
69083;SDS011;56185;48.526;9.044;2023-05-16T02:38:46;7.23;;;4.60;;
69083;SDS011;56185;48.526;9.044;2023-05-16T02:41:11;6.97;;;4.87;;
69083;SDS011;56185;48.526;9.044;2023-05-16T02:43:37;7.13;;;4.50;;
69083;SDS011;56185;48.526;9.044;2023-05-16T02:46:12;7.93;;;5.17;;
69083;SDS011;56185;48.526;9.044;2023-05-16T02:48:53;7.15;;;5.03;;
69083;SDS011;56185;48.526;9.044;2023-05-16T02:51:20;8.65;;;5.20;;
69083;SDS011;56185;48.526;9.044;2023-05-16T02:53:46;6.78;;;4.75;;
69083;SDS011;56185;48.526;9.044;2023-05-16T02:56:11;5.28;;;4.40;;
69083;SDS011;56185;48.526;9.044;2023-05-16T02:58:36;5.43;;;4.83;;
69083;SDS011;56185;48.526;9.044;2023-05-16T03:01:02;6.67;;;4.80;;
69083;SDS011;56185;48.526;9.044;2023-05-16T03:03:28;5.60;;;4.68;;
69083;SDS011;56185;48.526;9.044;2023-05-16T03:05:53;5.47;;;4.78;;
69083;SDS011;56185;48.526;9.044;2023-05-16T03:08:18;7.37;;;4.83;;
69083;SDS011;56185;48.526;9.044;2023-05-16T03:10:43;6.40;;;4.60;;
69083;SDS011;56185;48.526;9.044;2023-05-16T03:13:09;5.30;;;4.80;;
69083;SDS011;56185;48.526;9.044;2023-05-16T03:15:34;7.20;;;4.70;;
69083;SDS011;56185;48.526;9.044;2023-05-16T03:17:59;5.73;;;4.70;;
69083;SDS011;56185;48.526;9.044;2023-05-16T03:20:24;5.50;;;4.60;;
69083;SDS011;56185;48.526;9.044;2023-05-16T03:22:50;8.38;;;5.00;;
69083;SDS011;56185;48.526;9.044;2023-05-16T03:25:15;7.75;;;5.18;;
69083;SDS011;56185;48.526;9.044;2023-05-16T03:27:40;7.73;;;4.63;;
69083;SDS011;56185;48.526;9.044;2023-05-16T03:30:06;6.00;;;5.30;;
69083;SDS011;56185;48.526;9.044;2023-05-16T03:32:32;8.15;;;5.55;;
69083;SDS011;56185;48.526;9.044;2023-05-16T03:34:57;5.82;;;5.00;;
69083;SDS011;56185;48.526;9.044;2023-05-16T03:37:22;7.07;;;5.65;;
69083;SDS011;56185;48.526;9.044;2023-05-16T03:39:48;8.10;;;5.00;;
69083;SDS011;56185;48.526;9.044;2023-05-16T03:42:13;8.55;;;5.72;;
69083;SDS011;56185;48.526;9.044;2023-05-16T03:44:38;9.52;;;7.32;;
69083;SDS011;56185;48.526;9.044;2023-05-16T03:47:03;11.07;;;7.77;;
69083;SDS011;56185;48.526;9.044;2023-05-16T03:49:29;17.02;;;10.98;;
69083;SDS011;56185;48.526;9.044;2023-05-16T03:51:54;18.87;;;12.70;;
69083;SDS011;56185;48.526;9.044;2023-05-16T03:54:19;20.40;;;13.07;;
69083;SDS011;56185;48.526;9.044;2023-05-16T03:56:45;22.15;;;13.80;;
69083;SDS011;56185;48.526;9.044;2023-05-16T03:59:10;18.67;;;12.80;;
69083;SDS011;56185;48.526;9.044;2023-05-16T04:01:36;18.23;;;11.13;;
69083;SDS011;56185;48.526;9.044;2023-05-16T04:04:01;11.57;;;8.30;;
69083;SDS011;56185;48.526;9.044;2023-05-16T04:06:26;9.43;;;7.57;;
69083;SDS011;56185;48.526;9.044;2023-05-16T04:08:51;8.43;;;6.37;;
69083;SDS011;56185;48.526;9.044;2023-05-16T04:11:17;9.33;;;6.40;;
69083;SDS011;56185;48.526;9.044;2023-05-16T04:13:42;10.20;;;6.53;;
69083;SDS011;56185;48.526;9.044;2023-05-16T04:16:07;10.90;;;6.35;;
69083;SDS011;56185;48.526;9.044;2023-05-16T04:18:32;10.07;;;6.05;;
69083;SDS011;56185;48.526;9.044;2023-05-16T04:20:58;9.38;;;6.60;;
69083;SDS011;56185;48.526;9.044;2023-05-16T04:23:23;9.80;;;7.20;;
69083;SDS011;56185;48.526;9.044;2023-05-16T04:25:48;10.13;;;7.45;;
69083;SDS011;56185;48.526;9.044;2023-05-16T04:28:14;10.18;;;6.50;;
69083;SDS011;56185;48.526;9.044;2023-05-16T04:30:39;8.80;;;6.63;;
69083;SDS011;56185;48.526;9.044;2023-05-16T04:33:04;9.70;;;7.53;;
69083;SDS011;56185;48.526;9.044;2023-05-16T04:35:29;10.90;;;7.07;;
69083;SDS011;56185;48.526;9.044;2023-05-16T04:37:55;12.95;;;7.38;;
69083;SDS011;56185;48.526;9.044;2023-05-16T04:40:20;10.70;;;7.63;;
69083;SDS011;56185;48.526;9.044;2023-05-16T04:42:45;8.43;;;7.05;;
69083;SDS011;56185;48.526;9.044;2023-05-16T04:45:10;10.35;;;7.40;;
69083;SDS011;56185;48.526;9.044;2023-05-16T04:47:36;15.83;;;10.07;;
69083;SDS011;56185;48.526;9.044;2023-05-16T04:50:01;13.70;;;8.95;;
69083;SDS011;56185;48.526;9.044;2023-05-16T04:52:27;12.93;;;9.18;;
69083;SDS011;56185;48.526;9.044;2023-05-16T04:54:53;14.25;;;9.93;;
69083;SDS011;56185;48.526;9.044;2023-05-16T04:57:18;18.85;;;11.68;;
69083;SDS011;56185;48.526;9.044;2023-05-16T04:59:43;15.45;;;10.15;;
69083;SDS011;56185;48.526;9.044;2023-05-16T05:02:08;17.08;;;10.73;;
69083;SDS011;56185;48.526;9.044;2023-05-16T05:04:34;13.40;;;9.33;;
69083;SDS011;56185;48.526;9.044;2023-05-16T05:06:59;12.57;;;9.23;;
69083;SDS011;56185;48.526;9.044;2023-05-16T05:09:24;13.40;;;9.60;;
69083;SDS011;56185;48.526;9.044;2023-05-16T05:11:49;16.27;;;10.73;;
69083;SDS011;56185;48.526;9.044;2023-05-16T05:14:15;20.63;;;11.90;;
69083;SDS011;56185;48.526;9.044;2023-05-16T05:16:40;21.13;;;12.23;;
69083;SDS011;56185;48.526;9.044;2023-05-16T05:19:05;19.70;;;12.10;;
69083;SDS011;56185;48.526;9.044;2023-05-16T05:21:31;22.20;;;12.00;;
69083;SDS011;56185;48.526;9.044;2023-05-16T05:23:56;19.83;;;12.55;;
69083;SDS011;56185;48.526;9.044;2023-05-16T05:26:21;21.23;;;13.18;;
69083;SDS011;56185;48.526;9.044;2023-05-16T05:28:47;23.53;;;14.03;;
69083;SDS011;56185;48.526;9.044;2023-05-16T05:31:13;23.83;;;14.70;;
69083;SDS011;56185;48.526;9.044;2023-05-16T05:33:38;26.45;;;15.80;;
69083;SDS011;56185;48.526;9.044;2023-05-16T05:36:04;26.13;;;16.23;;
69083;SDS011;56185;48.526;9.044;2023-05-16T05:38:29;27.23;;;17.33;;
69083;SDS011;56185;48.526;9.044;2023-05-16T05:40:54;29.92;;;19.17;;
69083;SDS011;56185;48.526;9.044;2023-05-16T05:43:19;27.70;;;17.47;;
69083;SDS011;56185;48.526;9.044;2023-05-16T05:45:45;29.90;;;17.67;;
69083;SDS011;56185;48.526;9.044;2023-05-16T05:48:10;29.75;;;18.42;;
69083;SDS011;56185;48.526;9.044;2023-05-16T05:50:36;30.00;;;18.85;;
69083;SDS011;56185;48.526;9.044;2023-05-16T05:53:01;31.30;;;18.88;;
69083;SDS011;56185;48.526;9.044;2023-05-16T05:55:27;28.10;;;17.33;;
69083;SDS011;56185;48.526;9.044;2023-05-16T05:57:52;31.63;;;18.37;;
69083;SDS011;56185;48.526;9.044;2023-05-16T06:00:17;31.17;;;19.40;;
69083;SDS011;56185;48.526;9.044;2023-05-16T06:02:43;34.30;;;20.55;;
69083;SDS011;56185;48.526;9.044;2023-05-16T06:05:08;30.55;;;19.13;;
69083;SDS011;56185;48.526;9.044;2023-05-16T06:07:33;38.00;;;21.65;;
69083;SDS011;56185;48.526;9.044;2023-05-16T06:09:59;39.80;;;22.75;;
69083;SDS011;56185;48.526;9.044;2023-05-16T06:12:27;38.57;;;22.73;;
69083;SDS011;56185;48.526;9.044;2023-05-16T06:14:52;36.45;;;21.73;;
69083;SDS011;56185;48.526;9.044;2023-05-16T06:17:17;38.37;;;23.50;;
69083;SDS011;56185;48.526;9.044;2023-05-16T06:19:42;37.47;;;22.37;;
69083;SDS011;56185;48.526;9.044;2023-05-16T06:22:07;37.30;;;21.77;;
69083;SDS011;56185;48.526;9.044;2023-05-16T06:24:33;35.33;;;22.17;;
69083;SDS011;56185;48.526;9.044;2023-05-16T06:26:58;34.10;;;21.57;;
69083;SDS011;56185;48.526;9.044;2023-05-16T06:29:24;40.15;;;22.75;;
69083;SDS011;56185;48.526;9.044;2023-05-16T06:31:50;37.33;;;22.37;;
69083;SDS011;56185;48.526;9.044;2023-05-16T06:34:15;37.75;;;22.27;;
69083;SDS011;56185;48.526;9.044;2023-05-16T06:36:40;35.20;;;21.40;;
69083;SDS011;56185;48.526;9.044;2023-05-16T06:39:05;37.92;;;23.02;;
69083;SDS011;56185;48.526;9.044;2023-05-16T06:41:31;33.73;;;21.63;;
69083;SDS011;56185;48.526;9.044;2023-05-16T06:43:56;36.40;;;22.25;;
69083;SDS011;56185;48.526;9.044;2023-05-16T06:46:21;32.33;;;21.23;;
69083;SDS011;56185;48.526;9.044;2023-05-16T06:48:55;35.53;;;21.60;;
69083;SDS011;56185;48.526;9.044;2023-05-16T06:51:23;33.53;;;21.75;;
69083;SDS011;56185;48.526;9.044;2023-05-16T06:53:51;35.33;;;21.27;;
69083;SDS011;56185;48.526;9.044;2023-05-16T06:56:20;37.13;;;21.73;;
69083;SDS011;56185;48.526;9.044;2023-05-16T06:59:06;34.17;;;20.35;;
69083;SDS011;56185;48.526;9.044;2023-05-16T07:01:31;32.63;;;20.42;;
69083;SDS011;56185;48.526;9.044;2023-05-16T07:03:56;33.15;;;20.52;;
69083;SDS011;56185;48.526;9.044;2023-05-16T07:06:22;31.27;;;20.13;;
69083;SDS011;56185;48.526;9.044;2023-05-16T07:08:50;32.58;;;20.10;;
69083;SDS011;56185;48.526;9.044;2023-05-16T07:11:15;33.30;;;19.27;;
69083;SDS011;56185;48.526;9.044;2023-05-16T07:13:40;27.87;;;17.53;;
69083;SDS011;56185;48.526;9.044;2023-05-16T07:16:06;29.37;;;18.10;;
69083;SDS011;56185;48.526;9.044;2023-05-16T07:18:31;26.08;;;17.90;;
69083;SDS011;56185;48.526;9.044;2023-05-16T07:20:56;26.60;;;17.38;;
69083;SDS011;56185;48.526;9.044;2023-05-16T07:23:22;24.77;;;17.00;;
69083;SDS011;56185;48.526;9.044;2023-05-16T07:25:47;25.73;;;15.87;;
69083;SDS011;56185;48.526;9.044;2023-05-16T07:28:12;26.65;;;17.33;;
69083;SDS011;56185;48.526;9.044;2023-05-16T07:30:37;26.13;;;16.30;;
69083;SDS011;56185;48.526;9.044;2023-05-16T07:33:03;25.75;;;16.08;;
69083;SDS011;56185;48.526;9.044;2023-05-16T07:35:28;24.50;;;15.77;;
69083;SDS011;56185;48.526;9.044;2023-05-16T07:37:53;23.60;;;15.60;;
69083;SDS011;56185;48.526;9.044;2023-05-16T07:40:19;26.37;;;15.93;;
69083;SDS011;56185;48.526;9.044;2023-05-16T07:42:44;22.53;;;14.77;;
69083;SDS011;56185;48.526;9.044;2023-05-16T07:45:09;23.90;;;15.98;;
69083;SDS011;56185;48.526;9.044;2023-05-16T07:47:34;24.10;;;14.70;;
69083;SDS011;56185;48.526;9.044;2023-05-16T07:50:00;23.40;;;15.20;;
69083;SDS011;56185;48.526;9.044;2023-05-16T07:52:25;21.33;;;14.77;;
69083;SDS011;56185;48.526;9.044;2023-05-16T07:54:50;24.73;;;15.80;;
69083;SDS011;56185;48.526;9.044;2023-05-16T07:57:16;25.40;;;15.60;;
69083;SDS011;56185;48.526;9.044;2023-05-16T07:59:41;23.08;;;15.23;;
69083;SDS011;56185;48.526;9.044;2023-05-16T08:02:07;20.15;;;14.00;;
69083;SDS011;56185;48.526;9.044;2023-05-16T08:04:34;25.23;;;14.52;;
69083;SDS011;56185;48.526;9.044;2023-05-16T08:06:59;22.53;;;15.93;;
69083;SDS011;56185;48.526;9.044;2023-05-16T08:09:24;20.40;;;14.67;;
69083;SDS011;56185;48.526;9.044;2023-05-16T08:11:49;21.77;;;14.40;;
69083;SDS011;56185;48.526;9.044;2023-05-16T08:14:14;20.27;;;13.53;;
69083;SDS011;56185;48.526;9.044;2023-05-16T08:16:40;20.80;;;14.30;;
69083;SDS011;56185;48.526;9.044;2023-05-16T08:19:05;18.07;;;13.27;;
69083;SDS011;56185;48.526;9.044;2023-05-16T08:21:31;18.88;;;12.95;;
69083;SDS011;56185;48.526;9.044;2023-05-16T08:23:56;19.77;;;12.70;;
69083;SDS011;56185;48.526;9.044;2023-05-16T08:26:21;17.40;;;11.75;;
69083;SDS011;56185;48.526;9.044;2023-05-16T08:28:47;17.13;;;11.35;;
69083;SDS011;56185;48.526;9.044;2023-05-16T08:31:12;16.93;;;10.53;;
69083;SDS011;56185;48.526;9.044;2023-05-16T08:33:37;15.27;;;10.30;;
69083;SDS011;56185;48.526;9.044;2023-05-16T08:36:02;19.33;;;10.90;;
69083;SDS011;56185;48.526;9.044;2023-05-16T08:38:28;15.48;;;10.57;;
69083;SDS011;56185;48.526;9.044;2023-05-16T08:40:53;16.10;;;10.35;;
69083;SDS011;56185;48.526;9.044;2023-05-16T08:43:19;15.95;;;10.75;;
69083;SDS011;56185;48.526;9.044;2023-05-16T08:45:44;15.63;;;10.77;;
69083;SDS011;56185;48.526;9.044;2023-05-16T08:48:10;15.05;;;10.02;;
69083;SDS011;56185;48.526;9.044;2023-05-16T08:50:35;15.95;;;10.27;;
69083;SDS011;56185;48.526;9.044;2023-05-16T08:53:04;15.35;;;10.10;;
69083;SDS011;56185;48.526;9.044;2023-05-16T08:55:31;13.98;;;10.27;;
69083;SDS011;56185;48.526;9.044;2023-05-16T08:57:56;16.80;;;10.77;;
69083;SDS011;56185;48.526;9.044;2023-05-16T09:00:24;13.98;;;9.98;;
69083;SDS011;56185;48.526;9.044;2023-05-16T09:02:51;14.43;;;9.85;;
69083;SDS011;56185;48.526;9.044;2023-05-16T09:05:17;17.33;;;10.70;;
69083;SDS011;56185;48.526;9.044;2023-05-16T09:07:42;13.50;;;9.93;;
69083;SDS011;56185;48.526;9.044;2023-05-16T09:10:08;14.73;;;10.63;;
69083;SDS011;56185;48.526;9.044;2023-05-16T09:12:34;14.93;;;10.35;;
69083;SDS011;56185;48.526;9.044;2023-05-16T09:15:00;14.60;;;10.82;;
69083;SDS011;56185;48.526;9.044;2023-05-16T09:17:30;14.13;;;9.73;;
69083;SDS011;56185;48.526;9.044;2023-05-16T09:19:59;17.20;;;10.80;;
69083;SDS011;56185;48.526;9.044;2023-05-16T09:22:32;16.50;;;10.88;;
69083;SDS011;56185;48.526;9.044;2023-05-16T09:24:59;16.05;;;10.80;;
69083;SDS011;56185;48.526;9.044;2023-05-16T09:27:24;14.93;;;10.48;;
69083;SDS011;56185;48.526;9.044;2023-05-16T09:29:49;15.30;;;11.23;;
69083;SDS011;56185;48.526;9.044;2023-05-16T09:32:15;17.25;;;11.52;;
69083;SDS011;56185;48.526;9.044;2023-05-16T09:34:44;14.90;;;11.00;;
69083;SDS011;56185;48.526;9.044;2023-05-16T09:37:10;18.27;;;11.00;;
69083;SDS011;56185;48.526;9.044;2023-05-16T09:39:37;16.60;;;11.00;;
69083;SDS011;56185;48.526;9.044;2023-05-16T09:42:04;16.70;;;11.98;;
69083;SDS011;56185;48.526;9.044;2023-05-16T09:44:30;16.23;;;11.43;;
69083;SDS011;56185;48.526;9.044;2023-05-16T09:46:56;15.32;;;11.20;;
69083;SDS011;56185;48.526;9.044;2023-05-16T09:49:21;18.17;;;11.50;;
69083;SDS011;56185;48.526;9.044;2023-05-16T09:51:47;15.05;;;10.95;;
69083;SDS011;56185;48.526;9.044;2023-05-16T09:54:12;17.15;;;11.48;;
69083;SDS011;56185;48.526;9.044;2023-05-16T09:56:50;15.87;;;11.17;;
69083;SDS011;56185;48.526;9.044;2023-05-16T09:59:15;17.77;;;11.13;;
69083;SDS011;56185;48.526;9.044;2023-05-16T10:01:40;18.90;;;12.02;;
69083;SDS011;56185;48.526;9.044;2023-05-16T10:04:06;17.55;;;11.50;;
69083;SDS011;56185;48.526;9.044;2023-05-16T10:06:31;19.10;;;12.43;;
69083;SDS011;56185;48.526;9.044;2023-05-16T10:08:57;16.70;;;11.55;;
69083;SDS011;56185;48.526;9.044;2023-05-16T10:11:23;17.30;;;11.32;;
69083;SDS011;56185;48.526;9.044;2023-05-16T10:13:49;17.50;;;12.23;;
69083;SDS011;56185;48.526;9.044;2023-05-16T10:16:15;18.13;;;12.10;;
69083;SDS011;56185;48.526;9.044;2023-05-16T10:18:45;16.38;;;11.75;;
69083;SDS011;56185;48.526;9.044;2023-05-16T10:21:14;16.95;;;11.38;;
69083;SDS011;56185;48.526;9.044;2023-05-16T10:23:41;18.63;;;12.23;;
69083;SDS011;56185;48.526;9.044;2023-05-16T10:26:06;16.70;;;11.48;;
69083;SDS011;56185;48.526;9.044;2023-05-16T10:28:32;19.27;;;12.40;;
69083;SDS011;56185;48.526;9.044;2023-05-16T10:30:59;17.42;;;12.00;;
69083;SDS011;56185;48.526;9.044;2023-05-16T10:33:25;18.85;;;12.07;;
69083;SDS011;56185;48.526;9.044;2023-05-16T10:35:50;15.73;;;11.75;;
69083;SDS011;56185;48.526;9.044;2023-05-16T10:38:16;20.05;;;11.70;;
69083;SDS011;56185;48.526;9.044;2023-05-16T10:40:43;18.33;;;11.40;;
69083;SDS011;56185;48.526;9.044;2023-05-16T10:43:12;18.05;;;12.40;;
69083;SDS011;56185;48.526;9.044;2023-05-16T10:45:53;18.08;;;12.30;;
69083;SDS011;56185;48.526;9.044;2023-05-16T10:50:54;17.48;;;12.13;;
69083;SDS011;56185;48.526;9.044;2023-05-16T10:53:20;19.53;;;12.30;;
69083;SDS011;56185;48.526;9.044;2023-05-16T10:56:04;16.83;;;11.80;;
69083;SDS011;56185;48.526;9.044;2023-05-16T11:11:37;16.67;;;11.10;;
69083;SDS011;56185;48.526;9.044;2023-05-16T11:14:07;19.13;;;12.48;;
69083;SDS011;56185;48.526;9.044;2023-05-16T11:16:33;19.13;;;11.55;;
69083;SDS011;56185;48.526;9.044;2023-05-16T11:19:05;16.52;;;11.52;;
69083;SDS011;56185;48.526;9.044;2023-05-16T11:24:31;17.67;;;11.40;;
69083;SDS011;56185;48.526;9.044;2023-05-16T11:27:12;15.20;;;11.02;;
69083;SDS011;56185;48.526;9.044;2023-05-16T11:29:42;16.73;;;11.20;;
69083;SDS011;56185;48.526;9.044;2023-05-16T11:32:08;17.93;;;12.43;;
69083;SDS011;56185;48.526;9.044;2023-05-16T11:34:34;17.70;;;12.05;;
69083;SDS011;56185;48.526;9.044;2023-05-16T11:37:00;16.90;;;11.38;;
69083;SDS011;56185;48.526;9.044;2023-05-16T11:39:25;19.93;;;12.37;;
69083;SDS011;56185;48.526;9.044;2023-05-16T11:41:51;19.50;;;11.77;;
69083;SDS011;56185;48.526;9.044;2023-05-16T11:44:17;16.45;;;10.80;;
69083;SDS011;56185;48.526;9.044;2023-05-16T11:46:42;18.58;;;11.68;;
69083;SDS011;56185;48.526;9.044;2023-05-16T11:49:08;18.45;;;11.85;;
69083;SDS011;56185;48.526;9.044;2023-05-16T11:51:36;19.67;;;12.13;;
69083;SDS011;56185;48.526;9.044;2023-05-16T11:54:02;18.67;;;12.00;;
69083;SDS011;56185;48.526;9.044;2023-05-16T11:56:28;19.17;;;11.70;;
69083;SDS011;56185;48.526;9.044;2023-05-16T11:58:53;17.03;;;10.97;;
69083;SDS011;56185;48.526;9.044;2023-05-16T12:01:18;19.10;;;11.90;;
69083;SDS011;56185;48.526;9.044;2023-05-16T12:03:44;18.10;;;10.80;;
69083;SDS011;56185;48.526;9.044;2023-05-16T12:06:09;15.00;;;10.40;;
69083;SDS011;56185;48.526;9.044;2023-05-16T12:08:34;13.77;;;10.33;;
69083;SDS011;56185;48.526;9.044;2023-05-16T12:11:00;15.98;;;10.27;;
69083;SDS011;56185;48.526;9.044;2023-05-16T12:13:25;13.75;;;9.77;;
69083;SDS011;56185;48.526;9.044;2023-05-16T12:15:51;13.00;;;8.93;;
69083;SDS011;56185;48.526;9.044;2023-05-16T12:18:18;13.00;;;8.32;;
69083;SDS011;56185;48.526;9.044;2023-05-16T12:20:43;13.90;;;8.43;;
69083;SDS011;56185;48.526;9.044;2023-05-16T12:23:09;10.45;;;7.50;;
69083;SDS011;56185;48.526;9.044;2023-05-16T12:25:35;11.98;;;7.90;;
69083;SDS011;56185;48.526;9.044;2023-05-16T12:28:01;12.30;;;7.80;;
69083;SDS011;56185;48.526;9.044;2023-05-16T12:30:28;11.48;;;7.38;;
69083;SDS011;56185;48.526;9.044;2023-05-16T12:32:55;11.80;;;7.55;;
69083;SDS011;56185;48.526;9.044;2023-05-16T12:35:21;13.00;;;7.88;;
69083;SDS011;56185;48.526;9.044;2023-05-16T12:37:47;11.65;;;7.40;;
69083;SDS011;56185;48.526;9.044;2023-05-16T12:40:13;11.45;;;7.80;;
69083;SDS011;56185;48.526;9.044;2023-05-16T12:42:38;12.23;;;7.25;;
69083;SDS011;56185;48.526;9.044;2023-05-16T12:45:04;11.15;;;7.38;;
69083;SDS011;56185;48.526;9.044;2023-05-16T12:47:36;10.02;;;7.55;;
69083;SDS011;56185;48.526;9.044;2023-05-16T12:50:02;10.52;;;7.28;;
69083;SDS011;56185;48.526;9.044;2023-05-16T12:52:32;10.23;;;6.40;;
69083;SDS011;56185;48.526;9.044;2023-05-16T12:54:57;10.77;;;6.93;;
69083;SDS011;56185;48.526;9.044;2023-05-16T12:57:23;10.80;;;7.18;;
69083;SDS011;56185;48.526;9.044;2023-05-16T12:59:48;11.77;;;7.10;;
69083;SDS011;56185;48.526;9.044;2023-05-16T13:02:13;10.65;;;7.18;;
69083;SDS011;56185;48.526;9.044;2023-05-16T13:04:39;9.30;;;6.97;;
69083;SDS011;56185;48.526;9.044;2023-05-16T13:07:04;8.98;;;7.03;;
69083;SDS011;56185;48.526;9.044;2023-05-16T13:09:29;9.25;;;6.20;;
69083;SDS011;56185;48.526;9.044;2023-05-16T13:11:55;10.30;;;6.53;;
69083;SDS011;56185;48.526;9.044;2023-05-16T13:14:20;9.80;;;6.97;;
69083;SDS011;56185;48.526;9.044;2023-05-16T13:16:45;9.90;;;7.13;;
69083;SDS011;56185;48.526;9.044;2023-05-16T13:19:10;8.20;;;6.03;;
69083;SDS011;56185;48.526;9.044;2023-05-16T13:21:36;12.13;;;6.78;;
69083;SDS011;56185;48.526;9.044;2023-05-16T13:24:01;10.82;;;6.75;;
69083;SDS011;56185;48.526;9.044;2023-05-16T13:26:26;11.37;;;6.67;;
69083;SDS011;56185;48.526;9.044;2023-05-16T13:28:52;7.13;;;5.40;;
69083;SDS011;56185;48.526;9.044;2023-05-16T13:31:18;9.75;;;4.50;;
69083;SDS011;56185;48.526;9.044;2023-05-16T13:33:43;4.57;;;3.83;;
69083;SDS011;56185;48.526;9.044;2023-05-16T13:36:08;7.33;;;4.17;;
69083;SDS011;56185;48.526;9.044;2023-05-16T13:38:34;5.30;;;4.00;;
69083;SDS011;56185;48.526;9.044;2023-05-16T13:40:59;7.30;;;4.00;;
69083;SDS011;56185;48.526;9.044;2023-05-16T13:43:24;6.90;;;4.47;;
69083;SDS011;56185;48.526;9.044;2023-05-16T13:45:49;5.60;;;4.40;;
69083;SDS011;56185;48.526;9.044;2023-05-16T13:48:15;5.53;;;4.05;;
69083;SDS011;56185;48.526;9.044;2023-05-16T13:50:40;5.85;;;4.82;;
69083;SDS011;56185;48.526;9.044;2023-05-16T13:53:05;5.40;;;4.50;;
69083;SDS011;56185;48.526;9.044;2023-05-16T13:55:30;6.23;;;4.40;;
69083;SDS011;56185;48.526;9.044;2023-05-16T13:57:56;7.13;;;4.43;;
69083;SDS011;56185;48.526;9.044;2023-05-16T14:00:23;8.00;;;4.50;;
69083;SDS011;56185;48.526;9.044;2023-05-16T14:02:48;7.07;;;4.95;;
69083;SDS011;56185;48.526;9.044;2023-05-16T14:05:13;18.10;;;5.10;;
69083;SDS011;56185;48.526;9.044;2023-05-16T14:07:39;10.70;;;4.47;;
69083;SDS011;56185;48.526;9.044;2023-05-16T14:10:04;5.50;;;4.20;;
69083;SDS011;56185;48.526;9.044;2023-05-16T14:12:30;5.85;;;4.30;;
69083;SDS011;56185;48.526;9.044;2023-05-16T14:14:55;6.00;;;4.33;;
69083;SDS011;56185;48.526;9.044;2023-05-16T14:17:20;5.57;;;3.77;;
69083;SDS011;56185;48.526;9.044;2023-05-16T14:19:45;5.70;;;3.80;;
69083;SDS011;56185;48.526;9.044;2023-05-16T14:22:11;5.73;;;3.50;;
69083;SDS011;56185;48.526;9.044;2023-05-16T14:24:36;6.45;;;3.60;;
69083;SDS011;56185;48.526;9.044;2023-05-16T14:27:01;4.83;;;3.47;;
69083;SDS011;56185;48.526;9.044;2023-05-16T14:29:27;5.75;;;3.33;;
69083;SDS011;56185;48.526;9.044;2023-05-16T14:31:52;5.80;;;2.95;;
69083;SDS011;56185;48.526;9.044;2023-05-16T14:34:17;4.23;;;3.00;;
69083;SDS011;56185;48.526;9.044;2023-05-16T14:36:43;3.50;;;2.60;;
69083;SDS011;56185;48.526;9.044;2023-05-16T14:39:08;9.73;;;3.30;;
69083;SDS011;56185;48.526;9.044;2023-05-16T14:41:34;12.13;;;3.95;;
69083;SDS011;56185;48.526;9.044;2023-05-16T14:43:59;7.90;;;3.25;;
69083;SDS011;56185;48.526;9.044;2023-05-16T14:46:24;6.30;;;3.13;;
69083;SDS011;56185;48.526;9.044;2023-05-16T14:48:49;5.80;;;2.92;;
69083;SDS011;56185;48.526;9.044;2023-05-16T14:51:15;13.63;;;3.17;;
69083;SDS011;56185;48.526;9.044;2023-05-16T14:53:40;3.93;;;2.50;;
69083;SDS011;56185;48.526;9.044;2023-05-16T14:56:05;6.67;;;3.00;;
69083;SDS011;56185;48.526;9.044;2023-05-16T14:58:30;4.18;;;2.58;;
69083;SDS011;56185;48.526;9.044;2023-05-16T15:00:56;6.88;;;2.63;;